Time;durP1;ratioP1;P1;durP2;ratioP2;P2;SDS_P1;SDS_P2;PMS_P1;PMS_P2;Temp;Humidity;BMP_temperature;BMP_pressure;BME280_temperature;BME280_humidity;BME280_pressure;Samples;Min_cycle;Max_cycle;Signal;HPM_P1;HPM_P2
2022/08/25 00:00:30;;;;;;;5.00;2.90;;;21.50;97.40;;;;;;10501014;28;20372;-79
2022/08/25 00:05:34;;;;;;;4.47;2.83;;;21.50;97.40;;;;;;10501442;28;20059;-78
2022/08/25 00:10:38;;;;;;;5.32;2.90;;;21.50;97.50;;;;;;10532827;28;20512;-76
2022/08/25 00:15:40;;;;;;;5.75;3.30;;;21.20;97.90;;;;;;10501047;28;20452;-76
2022/08/25 00:20:44;;;;;;;6.72;3.42;;;21.10;98.50;;;;;;10500835;28;20041;-78
2022/08/25 00:25:46;;;;;;;4.93;3.50;;;21.00;99.10;;;;;;10501010;28;20044;-77
2022/08/25 00:30:48;;;;;;;5.93;3.85;;;21.00;99.50;;;;;;10507450;28;20047;-75
2022/08/25 00:35:52;;;;;;;7.88;3.60;;;21.10;99.70;;;;;;10500919;28;20094;-76
2022/08/25 00:41:05;;;;;;;5.88;2.95;;;21.20;99.40;;;;;;10500080;28;20403;-78
2022/08/25 00:46:08;;;;;;;4.00;2.67;;;21.20;98.90;;;;;;10536273;28;20105;-77
2022/08/25 00:51:15;;;;;;;5.25;2.88;;;21.20;99.10;;;;;;10531324;28;20138;-77
2022/08/25 00:56:18;;;;;;;6.10;2.97;;;21.10;99.20;;;;;;10507229;28;20432;-79
2022/08/25 01:01:21;;;;;;;5.60;3.20;;;21.00;99.20;;;;;;10521972;28;20060;-78
2022/08/25 01:06:25;;;;;;;4.60;2.75;;;20.80;99.30;;;;;;10498752;28;20048;-79
2022/08/25 01:11:27;;;;;;;5.03;3.63;;;20.60;99.50;;;;;;10498933;28;20407;-77
2022/08/25 01:16:30;;;;;;;5.40;3.67;;;20.40;99.90;;;;;;10500765;28;20048;-78
2022/08/25 01:21:42;;;;;;;6.68;4.10;;;20.40;99.90;;;;;;10498130;28;20056;-77
2022/08/25 01:26:44;;;;;;;5.50;3.22;;;20.40;99.90;;;;;;10519438;28;20053;-78
2022/08/25 01:31:47;;;;;;;5.00;3.70;;;20.40;99.90;;;;;;10502425;28;20051;-78
2022/08/25 01:36:50;;;;;;;7.15;3.85;;;20.20;99.90;;;;;;10509048;28;20485;-79
2022/08/25 01:42:13;;;;;;;5.88;3.97;;;20.20;99.90;;;;;;10536447;28;20070;-77
2022/08/25 01:47:16;;;;;;;5.85;3.85;;;20.00;99.90;;;;;;10517644;28;20045;-76
2022/08/25 01:52:28;;;;;;;5.90;3.75;;;20.00;99.90;;;;;;10497531;28;20409;-78
2022/08/25 01:57:31;;;;;;;5.07;3.85;;;20.00;99.90;;;;;;10502035;28;20060;-76
2022/08/25 02:02:33;;;;;;;7.68;4.25;;;20.00;99.90;;;;;;10456464;28;20537;-76
2022/08/25 02:07:37;;;;;;;6.55;3.92;;;20.00;99.90;;;;;;10524471;28;20054;-78
2022/08/25 02:12:39;;;;;;;7.45;4.30;;;20.00;99.90;;;;;;10482297;28;20045;-76
2022/08/25 02:17:41;;;;;;;5.78;4.13;;;20.10;99.90;;;;;;10462477;28;20449;-77
2022/08/25 02:22:45;;;;;;;5.07;3.55;;;20.10;99.90;;;;;;10496791;28;20053;-76
2022/08/25 02:27:47;;;;;;;6.75;3.30;;;20.20;99.90;;;;;;10535581;28;20444;-78
2022/08/25 02:32:49;;;;;;;6.60;3.38;;;20.20;99.90;;;;;;10508113;28;20044;-76
2022/08/25 02:37:53;;;;;;;6.78;3.25;;;20.00;99.90;;;;;;10498790;28;20049;-76
2022/08/25 02:42:56;;;;;;;6.38;3.42;;;20.00;99.90;;;;;;10503324;28;20040;-77
2022/08/25 02:47:58;;;;;;;5.90;3.60;;;19.90;99.90;;;;;;10497574;28;20059;-75
2022/08/25 02:53:01;;;;;;;6.07;3.78;;;19.80;99.90;;;;;;10496843;28;20402;-76
2022/08/25 02:58:03;;;;;;;5.75;3.40;;;19.70;99.90;;;;;;10500802;28;20047;-75
2022/08/25 03:03:06;;;;;;;6.95;3.75;;;19.60;99.90;;;;;;10503124;28;20040;-79
2022/08/25 03:08:10;;;;;;;6.15;3.83;;;19.50;99.90;;;;;;10507439;28;20040;-78
2022/08/25 03:13:12;;;;;;;6.40;4.43;;;19.30;99.90;;;;;;10509893;28;20076;-78
2022/08/25 03:18:15;;;;;;;6.57;4.50;;;19.40;99.90;;;;;;10503913;28;20052;-76
2022/08/25 03:23:18;;;;;;;7.55;4.38;;;19.30;99.90;;;;;;10502583;28;20044;-76
2022/08/25 03:28:20;;;;;;;7.03;4.20;;;19.20;99.90;;;;;;10522138;28;20056;-78
2022/08/25 03:33:23;;;;;;;5.50;3.95;;;19.20;99.90;;;;;;10502865;28;20406;-77
2022/08/25 03:38:27;;;;;;;5.55;3.97;;;19.30;99.90;;;;;;10510513;28;20063;-77
2022/08/25 03:43:30;;;;;;;6.40;4.22;;;19.30;99.90;;;;;;10502270;28;20051;-76
2022/08/25 03:48:32;;;;;;;6.72;3.97;;;19.30;99.90;;;;;;10502890;28;20049;-76
2022/08/25 03:53:35;;;;;;;6.50;4.43;;;19.40;99.90;;;;;;10510966;28;20043;-78
2022/08/25 03:58:37;;;;;;;5.47;4.10;;;19.50;99.90;;;;;;10543688;28;20051;-78
2022/08/25 04:03:40;;;;;;;6.97;3.80;;;19.50;99.90;;;;;;10502137;28;20044;-78
2022/08/25 04:08:43;;;;;;;6.97;3.80;;;19.50;99.90;;;;;;10555534;28;20186;-75
2022/08/25 04:13:47;;;;;;;6.50;3.33;;;19.50;99.90;;;;;;10518460;28;20055;-75
2022/08/25 04:18:51;;;;;;;6.72;3.92;;;19.50;99.90;;;;;;10533117;28;20091;-78
2022/08/25 04:23:56;;;;;;;5.70;3.90;;;19.30;99.90;;;;;;10501686;28;20516;-76
2022/08/25 04:29:00;;;;;;;6.03;3.90;;;19.20;99.90;;;;;;10501252;28;20056;-78
2022/08/25 04:34:03;;;;;;;5.47;3.92;;;19.00;99.90;;;;;;10508603;28;20054;-77
2022/08/25 04:39:08;;;;;;;6.68;3.80;;;18.90;99.90;;;;;;10542327;28;20063;-76
2022/08/25 04:44:10;;;;;;;5.45;3.72;;;19.00;99.90;;;;;;10541968;28;20051;-77
2022/08/25 04:49:12;;;;;;;6.63;3.83;;;19.10;99.90;;;;;;10519092;28;20052;-77
2022/08/25 04:54:20;;;;;;;6.05;3.92;;;19.10;99.90;;;;;;10500286;28;20483;-77
2022/08/25 04:59:22;;;;;;;6.70;3.80;;;19.00;99.90;;;;;;10500741;28;20083;-77
2022/08/25 05:04:24;;;;;;;7.38;3.90;;;19.00;99.90;;;;;;10505443;28;20482;-75
2022/08/25 05:09:28;;;;;;;7.53;3.90;;;19.10;99.90;;;;;;10543765;28;20478;-78
2022/08/25 05:14:31;;;;;;;6.03;4.22;;;19.00;99.90;;;;;;10551670;28;20501;-74
2022/08/25 05:19:34;;;;;;;6.82;4.30;;;18.90;99.90;;;;;;10541420;28;20508;-75
2022/08/25 05:24:38;;;;;;;6.53;4.28;;;19.00;99.90;;;;;;10541107;28;20546;-77
2022/08/25 05:29:40;;;;;;;8.35;5.28;;;19.00;99.90;;;;;;10535223;28;20044;-77
2022/08/25 05:34:42;;;;;;;7.07;4.90;;;19.10;99.90;;;;;;10500482;28;20131;-76
2022/08/25 05:39:45;;;;;;;8.40;4.85;;;19.00;99.90;;;;;;10500072;28;20053;-76
2022/08/25 05:44:48;;;;;;;8.38;5.05;;;18.90;99.90;;;;;;10501281;28;20052;-77
2022/08/25 05:49:50;;;;;;;7.85;5.30;;;19.00;99.90;;;;;;10501768;28;20040;-76
2022/08/25 05:54:53;;;;;;;7.15;5.18;;;19.00;99.90;;;;;;10535906;28;20048;-76
2022/08/25 05:59:55;;;;;;;7.50;4.85;;;19.00;99.90;;;;;;10498109;28;20486;-77
2022/08/25 06:04:58;;;;;;;7.93;5.20;;;19.20;99.90;;;;;;10497793;28;20055;-78
2022/08/25 06:10:01;;;;;;;7.60;4.85;;;19.30;99.90;;;;;;10508569;28;20429;-76
2022/08/25 06:15:04;;;;;;;9.68;5.20;;;19.20;99.90;;;;;;10544585;28;20047;-79
2022/08/25 06:20:09;;;;;;;8.30;5.20;;;19.20;99.90;;;;;;10541816;28;20448;-77
2022/08/25 06:25:15;;;;;;;8.18;5.65;;;19.10;99.90;;;;;;10537764;28;20070;-78
2022/08/25 06:30:21;;;;;;;10.27;6.25;;;19.10;99.90;;;;;;10537450;28;20052;-76
2022/08/25 06:35:23;;;;;;;9.25;6.28;;;19.10;99.90;;;;;;10538694;28;20474;-76
2022/08/25 06:40:26;;;;;;;10.15;6.63;;;19.20;99.90;;;;;;10523599;28;20056;-77
2022/08/25 06:45:28;;;;;;;11.10;6.85;;;19.40;99.90;;;;;;10508173;28;20060;-77
2022/08/25 06:50:30;;;;;;;10.40;5.70;;;19.40;99.90;;;;;;10507901;28;20048;-76
2022/08/25 06:55:35;;;;;;;10.35;6.50;;;19.60;99.90;;;;;;10503340;28;20401;-77
2022/08/25 07:00:38;;;;;;;14.20;6.97;;;19.80;99.90;;;;;;10512925;28;20094;-78
2022/08/25 07:05:40;;;;;;;9.70;6.95;;;20.00;99.90;;;;;;10507490;28;20052;-80
2022/08/25 07:10:44;;;;;;;9.52;6.35;;;20.10;99.90;;;;;;10543723;28;20059;-76
2022/08/25 07:15:46;;;;;;;11.30;5.88;;;20.20;99.90;;;;;;10571189;28;20052;-76
2022/08/25 07:20:50;;;;;;;9.70;6.43;;;20.40;99.90;;;;;;10537246;28;20044;-77
2022/08/25 07:25:55;;;;;;;11.65;6.45;;;20.50;99.90;;;;;;10540662;28;20028;-77
2022/08/25 07:30:59;;;;;;;13.20;6.53;;;20.60;99.90;;;;;;10506703;28;20048;-75
2022/08/25 07:36:02;;;;;;;9.90;6.13;;;20.70;99.90;;;;;;10560267;28;20047;-76
2022/08/25 07:41:05;;;;;;;7.72;5.78;;;20.80;99.90;;;;;;10555132;28;20060;-79
2022/08/25 07:46:08;;;;;;;8.68;6.55;;;21.00;99.90;;;;;;10544201;28;20047;-76
2022/08/25 07:51:13;;;;;;;9.88;6.43;;;21.10;99.90;;;;;;10510135;28;20045;-76
2022/08/25 07:56:19;;;;;;;11.00;6.93;;;21.10;99.90;;;;;;10505875;28;20452;-75
2022/08/25 08:01:24;;;;;;;9.43;5.80;;;21.20;99.90;;;;;;10529964;28;20059;-79
2022/08/25 08:06:26;;;;;;;10.23;6.20;;;21.40;99.90;;;;;;10496899;28;20055;-77
2022/08/25 08:11:33;;;;;;;8.10;5.45;;;21.50;99.90;;;;;;10500304;28;20055;-76
2022/08/25 08:16:36;;;;;;;9.45;6.57;;;21.60;99.90;;;;;;10507877;28;20055;-79
2022/08/25 08:21:38;;;;;;;8.57;6.75;;;21.70;99.90;;;;;;10525616;28;20046;-78
2022/08/25 08:26:41;;;;;;;9.32;6.60;;;21.80;99.90;;;;;;10538861;28;20056;-78
2022/08/25 08:31:44;;;;;;;8.45;6.65;;;21.90;99.90;;;;;;10508852;28;20040;-77
2022/08/25 08:36:46;;;;;;;9.05;6.47;;;22.10;99.90;;;;;;10506455;28;20422;-78
2022/08/25 08:42:17;;;;;;;9.63;6.45;;;22.20;99.90;;;;;;10496331;28;20052;-79
2022/08/25 08:47:30;;;;;;;10.30;6.00;;;22.30;99.90;;;;;;10530259;28;20144;-77
2022/08/25 08:52:42;;;;;;;9.25;6.82;;;22.40;99.90;;;;;;10514545;28;20044;-76
2022/08/25 08:57:49;;;;;;;8.25;5.85;;;22.50;99.90;;;;;;10496111;28;20060;-79
2022/08/25 09:03:00;;;;;;;8.45;6.10;;;22.70;99.90;;;;;;10510080;28;20075;-79
2022/08/25 09:08:07;;;;;;;7.15;5.30;;;22.90;99.90;;;;;;10517336;28;20049;-78
2022/08/25 09:13:22;;;;;;;6.88;5.07;;;23.00;99.10;;;;;;10509970;28;20383;-78
2022/08/25 09:18:34;;;;;;;7.60;5.20;;;23.10;98.40;;;;;;10506963;28;20126;-79
2022/08/25 09:23:55;;;;;;;7.00;4.88;;;23.30;98.00;;;;;;10493682;28;20600;-77
2022/08/25 09:29:06;;;;;;;8.40;4.53;;;23.40;97.60;;;;;;10497988;28;20512;-78
2022/08/25 09:34:13;;;;;;;7.88;4.53;;;23.50;96.90;;;;;;10498609;28;20049;-78
2022/08/25 09:39:15;;;;;;;6.80;4.57;;;23.70;96.60;;;;;;10493829;28;20508;-77
2022/08/25 09:44:23;;;;;;;7.28;4.63;;;23.70;96.20;;;;;;10493782;28;20041;-76
2022/08/25 09:49:34;;;;;;;7.70;4.57;;;23.80;96.20;;;;;;10497807;28;20044;-77
2022/08/25 09:54:38;;;;;;;6.45;4.90;;;24.00;96.00;;;;;;10491335;28;20077;-79
2022/08/25 09:59:43;;;;;;;6.35;4.57;;;24.00;95.40;;;;;;10524477;28;20481;-78
2022/08/25 10:04:45;;;;;;;8.15;4.57;;;24.20;95.10;;;;;;10501086;28;20045;-77
2022/08/25 10:09:54;;;;;;;7.32;4.57;;;24.20;95.10;;;;;;10492194;28;20044;-77
2022/08/25 10:14:57;;;;;;;6.95;4.47;;;24.20;94.90;;;;;;10493149;28;20066;-76
2022/08/25 10:20:18;;;;;;;7.55;4.80;;;24.40;95.00;;;;;;10510992;28;20050;-77
2022/08/25 10:25:27;;;;;;;7.43;4.63;;;24.50;94.60;;;;;;10491764;28;20051;-77
2022/08/25 10:30:39;;;;;;;6.50;4.32;;;24.50;93.90;;;;;;10491001;28;20045;-77
2022/08/25 10:35:56;;;;;;;7.97;4.60;;;24.60;93.60;;;;;;10526755;28;20102;-75
2022/08/25 10:41:11;;;;;;;7.03;4.05;;;24.70;93.30;;;;;;10542312;28;20049;-76
2022/08/25 10:46:23;;;;;;;8.50;4.20;;;24.90;94.30;;;;;;10492208;28;20408;-77
2022/08/25 10:51:48;;;;;;;6.55;4.20;;;25.10;93.00;;;;;;10496115;28;20502;-76
2022/08/25 10:57:01;;;;;;;6.68;3.60;;;25.10;93.00;;;;;;10532712;28;20047;-75
2022/08/25 11:03:04;;;;;;;6.28;4.10;;;25.20;92.40;;;;;;10530894;28;20497;-75
2022/08/25 11:08:13;;;;;;;6.35;4.07;;;25.40;92.40;;;;;;10517085;28;20048;-77
2022/08/25 11:13:30;;;;;;;5.38;3.75;;;25.40;92.20;;;;;;10532835;28;20052;-76
2022/08/25 11:18:38;;;;;;;6.60;3.53;;;25.40;92.70;;;;;;10505678;28;20068;-76
2022/08/25 11:23:54;;;;;;;8.68;4.13;;;25.60;92.30;;;;;;10500014;28;20048;-76
2022/08/25 11:29:04;;;;;;;5.22;3.80;;;25.80;91.60;;;;;;10493316;28;20460;-75
2022/08/25 11:34:13;;;;;;;7.20;3.58;;;25.90;90.80;;;;;;10530124;28;20051;-77
2022/08/25 11:39:28;;;;;;;5.20;3.53;;;26.00;91.50;;;;;;10508795;28;20479;-76
2022/08/25 11:44:46;;;;;;;4.55;3.20;;;26.10;90.00;;;;;;10498817;28;20044;-76
2022/08/25 11:49:58;;;;;;;5.90;3.10;;;26.30;90.60;;;;;;10496265;28;20059;-77
2022/08/25 11:55:07;;;;;;;7.43;3.20;;;26.40;87.50;;;;;;10496103;28;20055;-77
2022/08/25 12:00:13;;;;;;;4.47;3.08;;;26.50;86.10;;;;;;10497407;28;20411;-79
2022/08/25 12:06:13;;;;;;;5.72;3.00;;;26.80;86.10;;;;;;10496166;28;20132;-77
2022/08/25 12:11:53;;;;;;;4.35;2.80;;;26.90;83.80;;;;;;10495263;28;20056;-77
2022/08/25 12:17:17;;;;;;;4.47;2.88;;;26.80;83.40;;;;;;10500342;28;20071;-76
2022/08/25 12:22:50;;;;;;;4.57;2.80;;;27.00;84.10;;;;;;10522765;28;20130;-75
2022/08/25 12:28:05;;;;;;;4.80;3.10;;;27.00;82.10;;;;;;10527087;28;20048;-76
2022/08/25 12:33:17;;;;;;;7.80;3.72;;;26.90;81.50;;;;;;10526914;28;20051;-74
2022/08/25 12:38:31;;;;;;;6.28;3.40;;;27.00;80.20;;;;;;10515786;28;20065;-75
2022/08/25 12:43:37;;;;;;;6.32;4.43;;;27.00;79.50;;;;;;10508694;28;20044;-76
2022/08/25 12:48:55;;;;;;;5.13;3.03;;;27.10;80.30;;;;;;10494723;28;20486;-75
2022/08/25 12:54:13;;;;;;;6.55;3.10;;;27.70;78.20;;;;;;10516500;28;20090;-78
2022/08/25 12:59:17;;;;;;;;;;;28.00;77.70;;;;;;10504882;28;20048;-75
2022/08/25 13:04:42;;;;;;;4.38;2.47;;;28.30;77.30;;;;;;10493414;28;20716;-76
2022/08/25 13:10:22;;;;;;;5.43;2.83;;;28.60;74.60;;;;;;10494908;28;20131;-77
2022/08/25 13:15:39;;;;;;;6.05;2.90;;;28.70;73.40;;;;;;10534225;28;20048;-75
2022/08/25 13:20:41;;;;;;;4.22;3.03;;;28.50;71.90;;;;;;10469782;28;20048;-76
2022/08/25 13:25:51;;;;;;;4.78;2.67;;;28.70;73.80;;;;;;10491908;28;20433;-76
2022/08/25 13:31:07;;;;;;;5.55;2.90;;;29.10;71.80;;;;;;10491665;28;20045;-76
2022/08/25 13:41:44;;;;;;;6.25;2.95;;;29.90;69.60;;;;;;10506327;28;20068;-76
2022/08/25 13:46:47;;;;;;;3.78;2.60;;;30.20;68.20;;;;;;10534777;28;20071;-79
2022/08/25 13:51:54;;;;;;;5.18;2.90;;;30.70;69.00;;;;;;10535191;28;20075;-77
2022/08/25 13:57:06;;;;;;;;;;;31.10;68.60;;;;;;10534762;28;20051;-79
2022/08/25 14:02:10;;;;;;;4.45;2.80;;;31.30;65.10;;;;;;10543255;28;20357;-78
2022/08/25 14:07:27;;;;;;;8.65;3.90;;;31.50;65.80;;;;;;10522830;28;20075;-77
2022/08/25 14:12:39;;;;;;;7.30;3.67;;;31.60;65.90;;;;;;10491537;28;20045;-77
2022/08/25 14:17:45;;;;;;;4.55;2.90;;;31.20;66.00;;;;;;10528916;28;20052;-75
2022/08/25 14:22:57;;;;;;;5.37;3.20;;;31.60;63.10;;;;;;10534303;28;20052;-77
2022/08/25 14:28:06;;;;;;;6.43;2.78;;;32.10;64.10;;;;;;10533023;28;20052;-79
2022/08/25 14:33:09;;;;;;;3.90;2.60;;;32.30;62.40;;;;;;10522317;28;20383;-78
2022/08/25 14:38:12;;;;;;;4.53;2.42;;;32.30;61.40;;;;;;10491772;28;20464;-76
2022/08/25 14:43:15;;;;;;;5.22;2.50;;;32.80;60.50;;;;;;10492011;28;20052;-78
2022/08/25 14:48:24;;;;;;;4.00;2.70;;;33.40;59.10;;;;;;10490633;28;20067;-77
2022/08/25 14:53:27;;;;;;;5.22;2.50;;;33.80;57.30;;;;;;10491314;28;20379;-77
2022/08/25 14:58:31;;;;;;;3.80;2.50;;;34.20;57.20;;;;;;10522560;28;20056;-80
2022/08/25 15:03:37;;;;;;;5.35;2.60;;;34.30;55.10;;;;;;10521093;28;20059;-78
2022/08/25 15:14:02;;;;;;;4.70;2.53;;;35.50;55.00;;;;;;10491993;28;20057;-78
2022/08/25 15:19:06;;;;;;;5.68;2.60;;;36.60;53.90;;;;;;10490636;28;20052;-79
2022/08/25 15:24:10;;;;;;;3.35;2.30;;;37.40;53.00;;;;;;10498670;28;20071;-76
2022/08/25 15:29:13;;;;;;;3.55;2.30;;;37.10;51.40;;;;;;10497604;28;20053;-77
2022/08/25 15:34:15;;;;;;;5.22;2.60;;;37.60;52.10;;;;;;10492168;28;20063;-79
2022/08/25 15:39:18;;;;;;;4.95;2.50;;;37.70;51.20;;;;;;10492290;28;20063;-78
2022/08/25 15:44:22;;;;;;;3.30;2.13;;;38.10;50.00;;;;;;10489605;28;20580;-80
2022/08/25 15:49:25;;;;;;;3.20;2.20;;;38.30;48.40;;;;;;10495154;28;20053;-78
2022/08/25 15:54:28;;;;;;;4.50;2.28;;;38.30;47.50;;;;;;10484314;28;20041;-76
2022/08/25 15:59:32;;;;;;;7.78;2.58;;;37.00;49.80;;;;;;10497890;28;20069;-79
2022/08/25 16:04:34;;;;;;;5.07;2.30;;;36.80;49.60;;;;;;10463453;28;20099;-78
2022/08/25 16:09:37;;;;;;;4.85;2.97;;;36.70;50.20;;;;;;10457130;28;20048;-77
2022/08/25 16:14:40;;;;;;;3.97;2.60;;;36.70;50.30;;;;;;10457788;28;20053;-77
2022/08/25 16:19:42;;;;;;;4.88;2.17;;;37.30;50.20;;;;;;10477396;28;20058;-78
2022/08/25 16:24:46;;;;;;;5.18;2.55;;;37.40;48.80;;;;;;10492884;28;20045;-75
2022/08/25 16:29:50;;;;;;;4.78;2.50;;;37.70;49.30;;;;;;10494743;28;20048;-76
2022/08/25 16:34:53;;;;;;;6.25;2.47;;;37.80;48.40;;;;;;10494703;28;20052;-78
2022/08/25 16:39:56;;;;;;;3.90;2.67;;;37.70;48.80;;;;;;10508225;28;20064;-78
2022/08/25 16:45:00;;;;;;;4.38;2.50;;;37.00;48.50;;;;;;10494161;28;20063;-78
2022/08/25 16:50:02;;;;;;;3.88;2.40;;;36.60;48.90;;;;;;10506522;28;20056;-77
2022/08/25 16:55:14;;;;;;;3.63;2.25;;;36.10;49.30;;;;;;10496193;28;20102;-78
2022/08/25 17:00:22;;;;;;;4.88;3.00;;;35.70;49.50;;;;;;10494955;28;20540;-77
2022/08/25 17:05:24;;;;;;;4.50;2.67;;;35.50;49.60;;;;;;10494649;28;20114;-76
2022/08/25 17:10:27;;;;;;;4.90;2.95;;;35.20;50.50;;;;;;10498218;28;20041;-79
2022/08/25 17:15:31;;;;;;;4.40;3.25;;;35.00;51.60;;;;;;10489994;28;20057;-76
2022/08/25 17:20:33;;;;;;;4.82;2.70;;;34.70;51.50;;;;;;10485620;28;20056;-79
2022/08/25 17:25:36;;;;;;;4.47;3.10;;;34.50;52.20;;;;;;10477681;28;20069;-77
2022/08/25 17:30:42;;;;;;;6.68;3.20;;;34.30;52.50;;;;;;10483970;28;20068;-79
2022/08/25 17:35:47;;;;;;;6.72;3.92;;;34.10;53.70;;;;;;10483131;28;20515;-76
2022/08/25 17:40:49;;;;;;;4.63;3.15;;;33.90;54.30;;;;;;10491821;28;20048;-77
2022/08/25 17:45:55;;;;;;;4.80;2.92;;;33.70;55.50;;;;;;10505507;28;20056;-77
2022/08/25 17:51:00;;;;;;;4.25;2.67;;;33.50;55.40;;;;;;10492330;28;20757;-77
2022/08/25 17:56:05;;;;;;;3.92;2.83;;;33.20;56.70;;;;;;10491424;28;20045;-77
2022/08/25 18:01:16;;;;;;;5.20;2.97;;;33.00;56.90;;;;;;10522353;28;20048;-75
2022/08/25 18:06:20;;;;;;;4.47;3.33;;;32.60;56.90;;;;;;10494552;28;20045;-75
2022/08/25 18:11:23;;;;;;;5.20;2.85;;;32.20;57.70;;;;;;10453618;28;20448;-78
2022/08/25 18:16:27;;;;;;;4.45;2.75;;;31.80;59.30;;;;;;10484021;28;20114;-76
2022/08/25 18:21:30;;;;;;;4.53;2.53;;;31.40;59.60;;;;;;10476176;28;20048;-76
2022/08/25 18:26:32;;;;;;;5.20;2.67;;;31.10;60.40;;;;;;10498613;28;20048;-77
2022/08/25 18:31:36;;;;;;;5.90;3.13;;;30.80;60.60;;;;;;10490437;28;20052;-78
2022/08/25 18:36:38;;;;;;;5.10;2.80;;;30.50;61.80;;;;;;10492035;28;20158;-77
2022/08/25 18:41:42;;;;;;;5.05;3.05;;;30.20;62.80;;;;;;10510833;28;20067;-79
2022/08/25 18:46:47;;;;;;;6.30;3.25;;;30.00;62.90;;;;;;10541677;28;20445;-77
2022/08/25 18:51:49;;;;;;;6.15;3.28;;;29.70;63.80;;;;;;10515222;28;20094;-82
2022/08/25 18:56:53;;;;;;;5.13;2.92;;;29.50;64.30;;;;;;10511668;28;20044;-77
2022/08/25 19:01:57;;;;;;;5.55;3.10;;;29.20;64.70;;;;;;10534941;28;20080;-75
2022/08/25 19:07:00;;;;;;;5.47;3.00;;;28.90;65.90;;;;;;10535154;28;20055;-78
2022/08/25 19:12:02;;;;;;;6.32;4.13;;;28.60;65.80;;;;;;10540843;28;20135;-79
2022/08/25 19:17:06;;;;;;;5.00;3.15;;;28.50;66.80;;;;;;10506095;28;20049;-76
2022/08/25 19:22:08;;;;;;;5.38;3.72;;;28.30;67.70;;;;;;10512003;28;20516;-79
2022/08/25 19:27:10;;;;;;;6.22;3.67;;;28.10;67.90;;;;;;10494050;28;20449;-78
2022/08/25 19:32:13;;;;;;;4.78;3.22;;;28.00;68.90;;;;;;10496887;28;20068;-78
2022/08/25 19:37:17;;;;;;;5.72;3.33;;;27.90;69.10;;;;;;10526403;28;20573;-77
2022/08/25 19:42:20;;;;;;;7.70;3.65;;;27.70;70.80;;;;;;10496350;28;20060;-77
2022/08/25 19:47:24;;;;;;;5.85;3.70;;;27.60;71.10;;;;;;10499237;28;20040;-78
2022/08/25 19:52:26;;;;;;;8.05;4.47;;;27.40;72.00;;;;;;10512589;28;20406;-80
2022/08/25 19:57:28;;;;;;;5.90;3.65;;;27.20;74.30;;;;;;10499649;28;20052;-76
2022/08/25 20:02:32;;;;;;;6.53;3.83;;;26.90;74.40;;;;;;10513103;28;20078;-78
2022/08/25 20:07:35;;;;;;;5.28;3.45;;;26.60;76.70;;;;;;10503884;28;20064;-78
2022/08/25 20:12:37;;;;;;;7.07;3.65;;;26.50;76.60;;;;;;10493506;28;20051;-77
2022/08/25 20:17:42;;;;;;;5.13;3.60;;;26.40;77.20;;;;;;10494772;28;20049;-78
2022/08/25 20:22:45;;;;;;;7.72;3.80;;;26.30;77.20;;;;;;10495186;28;20075;-77
2022/08/25 20:27:52;;;;;;;7.05;3.88;;;26.20;78.00;;;;;;10494981;28;20753;-77
2022/08/25 20:32:57;;;;;;;8.52;4.13;;;26.10;79.50;;;;;;10494292;28;20079;-77
2022/08/25 20:38:00;;;;;;;8.18;4.10;;;26.00;79.40;;;;;;10495127;28;20067;-75
2022/08/25 20:43:03;;;;;;;7.38;4.18;;;25.80;80.50;;;;;;10495623;28;20133;-77
2022/08/25 20:48:07;;;;;;;8.13;5.70;;;25.70;81.50;;;;;;10511386;28;20406;-77
2022/08/25 20:53:09;;;;;;;7.90;4.22;;;25.60;82.20;;;;;;10495373;28;20049;-76
2022/08/25 20:58:12;;;;;;;7.80;4.10;;;25.50;81.90;;;;;;10522257;28;20056;-76
2022/08/25 21:03:15;;;;;;;6.95;4.20;;;25.50;83.40;;;;;;10499213;28;20095;-78
2022/08/25 21:08:17;;;;;;;10.73;6.47;;;25.30;83.50;;;;;;10499388;28;20048;-76
2022/08/25 21:13:19;;;;;;;6.97;4.28;;;25.30;84.10;;;;;;10498588;28;20494;-79
2022/08/25 21:18:23;;;;;;;6.32;4.18;;;25.00;85.00;;;;;;10493538;28;20499;-76
2022/08/25 21:23:25;;;;;;;11.00;6.25;;;24.80;86.60;;;;;;10493708;28;20059;-79
2022/08/25 21:28:27;;;;;;;5.38;3.53;;;24.70;87.40;;;;;;10505214;28;20059;-79
2022/08/25 21:33:30;;;;;;;6.60;3.55;;;24.70;87.80;;;;;;10497469;28;20528;-77
2022/08/25 21:38:33;;;;;;;6.28;3.97;;;24.70;88.70;;;;;;10530811;28;20066;-77
2022/08/25 21:43:35;;;;;;;5.18;3.67;;;24.60;88.10;;;;;;10491578;28;20067;-80
2022/08/25 21:48:39;;;;;;;7.22;3.70;;;24.40;89.50;;;;;;10493101;28;20044;-79
2022/08/25 21:53:42;;;;;;;7.15;3.90;;;24.10;90.40;;;;;;10491490;28;20055;-77
2022/08/25 21:58:46;;;;;;;7.90;4.18;;;24.10;90.80;;;;;;10490772;28;20067;-77
2022/08/25 22:03:50;;;;;;;5.25;3.67;;;24.00;91.00;;;;;;10495253;28;20094;-77
2022/08/25 22:08:52;;;;;;;6.65;3.47;;;23.90;91.10;;;;;;10492666;28;20048;-78
2022/08/25 22:13:55;;;;;;;7.25;3.85;;;23.80;91.60;;;;;;10490564;28;20048;-75
2022/08/25 22:18:59;;;;;;;8.27;3.88;;;23.90;91.90;;;;;;10503897;28;20047;-79
2022/08/25 22:24:01;;;;;;;5.93;4.05;;;23.80;92.30;;;;;;10513524;28;20048;-79
2022/08/25 22:29:04;;;;;;;8.95;5.70;;;23.70;92.10;;;;;;10498159;28;20044;-79
2022/08/25 22:34:08;;;;;;;7.68;4.70;;;23.70;92.00;;;;;;10511345;28;20052;-76
2022/08/25 22:39:10;;;;;;;6.20;4.25;;;23.40;92.50;;;;;;10496633;28;20485;-78
2022/08/25 22:44:12;;;;;;;6.07;3.75;;;23.30;93.20;;;;;;10507125;28;20061;-76
2022/08/25 22:49:16;;;;;;;7.03;4.32;;;23.10;93.40;;;;;;10498078;28;20045;-75
2022/08/25 22:54:18;;;;;;;5.45;3.80;;;22.80;94.30;;;;;;10500937;28;20056;-77
2022/08/25 22:59:20;;;;;;;6.53;3.75;;;23.00;94.00;;;;;;10520601;28;20051;-75
2022/08/25 23:04:24;;;;;;;8.70;4.28;;;22.80;94.30;;;;;;10528021;28;20049;-76
2022/08/25 23:09:26;;;;;;;8.45;4.22;;;22.70;94.60;;;;;;10534633;28;20052;-77
2022/08/25 23:14:33;;;;;;;11.48;4.65;;;22.50;95.00;;;;;;10537898;28;20052;-77
2022/08/25 23:19:36;;;;;;;6.95;4.13;;;22.60;95.40;;;;;;10534426;28;20048;-77
2022/08/25 23:24:43;;;;;;;7.45;4.65;;;22.60;95.50;;;;;;10518805;28;20487;-78
2022/08/25 23:29:47;;;;;;;6.28;4.55;;;22.60;95.70;;;;;;10505896;28;20452;-77
2022/08/25 23:34:51;;;;;;;6.90;4.53;;;22.40;96.10;;;;;;10503702;28;20076;-80
2022/08/25 23:39:53;;;;;;;5.90;4.45;;;22.20;96.40;;;;;;10505360;28;20048;-77
2022/08/25 23:44:55;;;;;;;8.60;4.30;;;22.20;96.60;;;;;;10503216;28;20643;-77
2022/08/25 23:49:59;;;;;;;6.43;4.30;;;22.30;96.70;;;;;;10503312;28;20154;-77
2022/08/25 23:55:01;;;;;;;7.03;4.40;;;22.40;96.50;;;;;;10520276;28;20052;-78
